Terminal Aerodrome Forecast
Issued by NWS Chicago, IL

Home | Current Version | Previous Version | Graphics & Text | Print | Product List | Glossary On
Versions: 1 2 3 4 5 6 7 8 9 10 11 12 13 14 15 16 17 18 19 20 21 22 23 24 25 26 27 28 29 30 31 32 33 34 35 36
000
FTUS43 KLOT 291100
TAFRFD
TAF
KRFD 291129Z 2912/3012 VRB02KT 6SM BR MIFG SKC
     FM291400 28003KT P6SM FEW250
     FM291900 30007KT P6SM SCT045
     FM300000 03012G17KT 6SM HZ OVC010
     FM300700 03007KT 6SM BR OVC010=

USA.gov is the U.S. government's official web portal to all federal, state and local government web resources and services.